createdAt,value
2022-10-19T00:01:41.007Z,33.27
2022-10-19T00:04:29.342Z,33.07
2022-10-19T00:07:19.566Z,32.93
2022-10-19T00:10:09.601Z,32.50
2022-10-19T00:12:57.689Z,35.33
2022-10-19T00:15:46.406Z,32.20
2022-10-19T00:18:34.059Z,32.97
2022-10-19T00:21:21.951Z,35.83
2022-10-19T00:24:10.374Z,35.83
2022-10-19T00:26:58.204Z,34.50
2022-10-19T00:29:46.713Z,37.97
2022-10-19T00:32:34.866Z,39.85
2022-10-19T00:35:23.303Z,38.17
2022-10-19T00:38:11.558Z,36.90
2022-10-19T00:40:59.899Z,36.73
2022-10-19T00:43:58.681Z,39.30
2022-10-19T00:46:48.751Z,37.47
2022-10-19T00:49:40.072Z,38.67
2022-10-19T00:52:29.056Z,40.10
2022-10-19T00:55:18.176Z,39.07
2022-10-19T00:58:05.933Z,42.67
2022-10-19T01:00:54.972Z,41.37
2022-10-19T01:03:43.832Z,42.80
2022-10-19T01:06:34.084Z,42.07
2022-10-19T01:09:22.544Z,42.90
2022-10-19T01:12:21.045Z,40.33
2022-10-19T01:15:21.969Z,39.40
2022-10-19T01:18:19.423Z,43.50
2022-10-19T01:21:21.102Z,40.20
2022-10-19T01:24:43.555Z,39.63
2022-10-19T01:27:53.347Z,37.53
2022-10-19T01:30:51.037Z,41.97
2022-10-19T01:33:50.340Z,46.37
2022-10-19T01:36:43.275Z,47.57
2022-10-19T01:39:45.343Z,44.17
2022-10-19T01:42:44.811Z,47.63
2022-10-19T01:45:40.668Z,45.80
2022-10-19T01:48:32.607Z,43.47
2022-10-19T01:51:27.686Z,45.48
2022-10-19T01:54:18.122Z,46.43
2022-10-19T01:57:09.622Z,44.43
2022-10-19T01:59:58.392Z,44.83
2022-10-19T02:02:50.498Z,48.17
2022-10-19T02:05:40.610Z,47.75
2022-10-19T02:08:31.610Z,52.23
2022-10-19T02:11:21.855Z,42.73
2022-10-19T02:14:17.489Z,44.57
2022-10-19T02:17:09.353Z,46.53
2022-10-19T02:19:59.717Z,50.08
2022-10-19T02:22:47.862Z,46.23
2022-10-19T02:25:36.880Z,43.43
2022-10-19T02:31:19.589Z,45.83
2022-10-19T02:34:09.060Z,44.77
2022-10-19T02:36:57.842Z,44.07
2022-10-19T02:39:46.269Z,44.57
2022-10-19T02:42:39.125Z,46.67
2022-10-19T02:45:31.684Z,44.90
2022-10-19T02:48:24.130Z,45.87
2022-10-19T02:51:31.423Z,44.65
2022-10-19T02:54:19.432Z,46.63
2022-10-19T02:57:17.292Z,45.20
2022-10-19T03:00:09.685Z,47.47
2022-10-19T03:02:58.072Z,48.40
2022-10-19T03:05:46.384Z,47.47
2022-10-19T03:08:34.512Z,52.90
2022-10-19T03:11:23.141Z,44.70
2022-10-19T03:14:11.951Z,45.60
2022-10-19T03:17:00.232Z,43.27
2022-10-19T03:19:48.639Z,41.87
2022-10-19T03:22:36.301Z,44.50
2022-10-19T03:25:24.856Z,42.97
2022-10-19T03:28:14.783Z,44.73
2022-10-19T03:31:03.227Z,43.40
2022-10-19T03:33:51.126Z,42.10
2022-10-19T03:36:40.240Z,43.30
2022-10-19T03:39:28.479Z,42.93
2022-10-19T03:42:17.359Z,45.73
2022-10-19T03:45:07.581Z,44.77
2022-10-19T03:47:55.568Z,48.37
2022-10-19T03:50:44.324Z,48.00
2022-10-19T03:53:33.272Z,50.30
2022-10-19T03:56:24.409Z,51.33
2022-10-19T03:59:15.382Z,46.85
2022-10-19T04:02:04.021Z,49.63
2022-10-19T04:04:52.670Z,47.90
2022-10-19T04:07:40.895Z,47.70
2022-10-19T04:10:30.780Z,48.07
2022-10-19T04:13:18.978Z,45.97
2022-10-19T04:16:09.560Z,46.30
2022-10-19T04:18:58.523Z,47.63
2022-10-19T04:21:52.320Z,44.97
2022-10-19T04:24:41.070Z,49.47
2022-10-19T04:27:29.082Z,44.93
2022-10-19T04:30:17.520Z,43.97
2022-10-19T04:33:05.868Z,44.80
2022-10-19T04:36:13.400Z,48.80
2022-10-19T04:39:02.087Z,43.73
2022-10-19T04:41:49.786Z,52.00
2022-10-19T04:44:37.482Z,47.10
2022-10-19T04:47:25.760Z,46.83
2022-10-19T04:50:13.997Z,45.77
2022-10-19T04:53:01.985Z,44.47
2022-10-19T04:55:50.348Z,43.77
2022-10-19T04:58:38.619Z,42.30
2022-10-19T05:01:28.705Z,43.25
2022-10-19T05:04:17.155Z,42.73
2022-10-19T05:07:05.169Z,48.00
2022-10-19T05:09:53.131Z,44.53
2022-10-19T05:12:41.825Z,43.03
2022-10-19T05:15:30.574Z,43.80
2022-10-19T05:18:18.833Z,46.63
2022-10-19T05:21:09.778Z,44.73
2022-10-19T05:23:58.438Z,47.50
2022-10-19T05:26:46.461Z,42.57
2022-10-19T05:29:34.712Z,45.97
2022-10-19T05:32:22.546Z,48.20
2022-10-19T05:35:11.006Z,44.10
2022-10-19T05:37:58.804Z,42.30
2022-10-19T05:40:52.813Z,40.95
2022-10-19T05:43:42.853Z,43.53
2022-10-19T05:46:32.689Z,42.83
2022-10-19T05:49:22.196Z,41.23
2022-10-19T05:52:10.519Z,45.07
2022-10-19T05:54:58.650Z,46.67
2022-10-19T05:57:46.641Z,46.50
2022-10-19T06:00:34.696Z,39.87
2022-10-19T06:03:23.772Z,42.43
2022-10-19T06:06:12.024Z,47.10
2022-10-19T06:09:01.012Z,43.87
2022-10-19T06:11:49.152Z,39.40
2022-10-19T06:14:37.521Z,38.30
2022-10-19T06:17:28.046Z,39.17
2022-10-19T06:20:16.423Z,36.17
2022-10-19T06:23:05.433Z,36.60
2022-10-19T06:25:53.483Z,41.57
2022-10-19T06:28:42.946Z,35.83
2022-10-19T06:31:47.314Z,41.40
2022-10-19T06:34:38.463Z,34.63
2022-10-19T06:37:27.170Z,36.07
2022-10-19T06:40:15.529Z,38.97
2022-10-19T06:43:03.991Z,34.37
2022-10-19T06:45:52.278Z,32.47
2022-10-19T06:48:41.277Z,33.80
2022-10-19T06:51:31.526Z,36.97
2022-10-19T06:54:19.684Z,28.97
2022-10-19T06:57:08.196Z,28.23
2022-10-19T07:00:10.084Z,31.67
2022-10-19T07:03:14.385Z,25.20
2022-10-19T07:06:15.759Z,26.57
2022-10-19T07:09:05.138Z,27.33
2022-10-19T07:11:53.205Z,27.27
2022-10-19T07:14:41.528Z,29.73
2022-10-19T07:17:29.898Z,26.73
2022-10-19T07:20:18.346Z,26.13
2022-10-19T07:23:07.899Z,30.17
2022-10-19T07:26:01.143Z,23.90
2022-10-19T07:29:07.165Z,23.90
2022-10-19T07:32:03.028Z,27.60
2022-10-19T07:34:57.683Z,26.00
2022-10-19T07:37:46.349Z,25.33
2022-10-19T07:40:35.946Z,24.60
2022-10-19T07:43:25.461Z,24.47
2022-10-19T07:46:17.919Z,24.37
2022-10-19T07:49:09.689Z,30.48
2022-10-19T07:51:58.652Z,21.62
2022-10-19T07:54:48.964Z,20.33
2022-10-19T07:57:37.763Z,25.07
2022-10-19T08:00:25.568Z,22.07
2022-10-19T08:04:31.205Z,24.90
2022-10-19T08:06:23.660Z,24.57
2022-10-19T08:09:27.740Z,20.93
2022-10-19T08:12:21.333Z,21.47
2022-10-19T08:15:10.421Z,22.73
2022-10-19T08:18:00.948Z,19.83
2022-10-19T08:20:50.127Z,19.77
2022-10-19T08:23:38.506Z,16.93
2022-10-19T08:26:29.571Z,19.87
2022-10-19T08:29:19.062Z,19.75
2022-10-19T08:32:07.473Z,17.17
2022-10-19T08:35:00.234Z,20.00
2022-10-19T08:37:49.284Z,20.10
2022-10-19T08:40:37.915Z,17.07
2022-10-19T08:43:34.557Z,16.27
2022-10-19T08:46:33.248Z,14.83
2022-10-19T08:49:25.664Z,17.57
2022-10-19T08:52:19.708Z,17.00
2022-10-19T08:55:18.036Z,14.23
2022-10-19T08:58:23.347Z,13.33
2022-10-19T09:01:20.058Z,15.70
2022-10-19T09:04:17.649Z,15.37
2022-10-19T09:07:23.179Z,12.37
2022-10-19T09:10:20.813Z,14.30
2022-10-19T09:13:20.217Z,13.33
2022-10-19T09:16:14.448Z,13.50
2022-10-19T09:19:02.672Z,15.10
2022-10-19T09:21:55.900Z,12.53
2022-10-19T09:24:49.294Z,11.90
2022-10-19T09:27:42.330Z,10.60
2022-10-19T09:30:31.733Z,13.27
2022-10-19T09:33:28.241Z,12.73
2022-10-19T09:36:22.579Z,13.30
2022-10-19T09:39:16.475Z,12.73
2022-10-19T09:42:12.590Z,13.33
2022-10-19T09:45:11.954Z,10.93
2022-10-19T09:48:08.732Z,10.43
2022-10-19T09:51:04.060Z,11.77
2022-10-19T09:53:55.207Z,11.03
2022-10-19T09:56:54.974Z,10.40
2022-10-19T09:59:43.622Z,12.37
2022-10-19T10:02:33.873Z,11.10
2022-10-19T10:05:31.853Z,10.80
2022-10-19T10:08:23.100Z,10.67
2022-10-19T10:11:15.871Z,13.63
2022-10-19T10:14:14.680Z,13.13
2022-10-19T10:17:06.586Z,13.67
2022-10-19T10:20:19.166Z,12.40
2022-10-19T10:23:20.804Z,11.40
2022-10-19T10:26:19.632Z,12.23
2022-10-19T10:29:20.612Z,11.73
2022-10-19T10:32:16.555Z,13.83
2022-10-19T10:35:20.078Z,14.00
2022-10-19T10:38:14.575Z,10.23
2022-10-19T10:41:15.802Z,12.83
2022-10-19T10:44:09.705Z,10.13
2022-10-19T10:47:01.290Z,11.13
2022-10-19T10:50:00.698Z,9.78
2022-10-19T11:00:02.084Z,12.17
2022-10-19T11:02:56.507Z,11.35
2022-10-19T11:05:48.731Z,11.23
2022-10-19T11:08:47.772Z,10.53
2022-10-19T11:11:42.058Z,11.50
2022-10-19T11:14:44.697Z,12.13
2022-10-19T11:17:38.090Z,13.00
2022-10-19T11:20:36.534Z,10.53
2022-10-19T11:23:44.068Z,8.90
2022-10-19T11:26:49.251Z,9.97
2022-10-19T11:34:26.574Z,9.70
2022-10-19T11:42:07.178Z,9.00
2022-10-19T11:45:27.955Z,11.27
2022-10-19T11:52:39.391Z,10.93
2022-10-19T11:55:45.878Z,13.83
2022-10-19T11:58:55.144Z,11.17
2022-10-19T12:01:59.206Z,9.33
2022-10-19T12:04:59.528Z,12.30
2022-10-19T12:08:10.701Z,11.10
2022-10-19T12:15:57.823Z,9.70
2022-10-19T12:19:08.531Z,11.00
2022-10-19T12:22:35.734Z,8.83
2022-10-19T12:25:49.655Z,14.83
2022-10-19T12:29:14.381Z,12.47
2022-10-19T12:56:56.852Z,14.47
2022-10-19T13:04:23.896Z,10.57
2022-10-19T13:07:19.101Z,11.87
2022-10-19T13:10:20.088Z,14.33
2022-10-19T13:14:00.603Z,9.60
2022-10-19T13:17:01.959Z,11.43
2022-10-19T13:19:51.248Z,11.28
2022-10-19T13:22:40.437Z,10.43
2022-10-19T13:25:30.708Z,9.47
2022-10-19T13:28:40.273Z,11.27
2022-10-19T13:31:33.553Z,13.07
2022-10-19T13:34:25.498Z,9.80
2022-10-19T13:40:23.678Z,11.60
2022-10-19T13:43:20.889Z,8.60
2022-10-19T13:46:15.701Z,11.43
2022-10-19T13:49:32.790Z,12.07
2022-10-19T13:52:54.586Z,11.03
2022-10-19T13:56:20.468Z,9.43
2022-10-19T13:59:59.123Z,9.67
2022-10-19T14:03:05.400Z,12.80
2022-10-19T14:06:13.475Z,12.23
2022-10-19T14:09:57.295Z,11.63
2022-10-19T14:12:46.947Z,12.10
2022-10-19T14:15:36.481Z,12.03
2022-10-19T14:18:27.295Z,11.63
2022-10-19T14:21:28.481Z,11.53
2022-10-19T14:24:29.783Z,14.78
2022-10-19T14:27:23.359Z,11.70
2022-10-19T14:30:22.746Z,11.43
2022-10-19T14:33:17.399Z,9.17
2022-10-19T14:36:17.175Z,11.67
2022-10-19T14:39:07.727Z,12.00
2022-10-19T14:42:00.434Z,9.87
2022-10-19T14:44:50.926Z,13.27
2022-10-19T14:47:54.364Z,13.30
2022-10-19T14:50:49.387Z,9.80
2022-10-19T14:53:43.057Z,12.83
2022-10-19T14:56:36.936Z,8.13
2022-10-19T14:59:29.432Z,12.43
2022-10-19T15:02:22.491Z,16.63
2022-10-19T15:05:20.374Z,14.63
2022-10-19T15:08:16.587Z,12.63
2022-10-19T15:11:07.093Z,11.23
2022-10-19T15:14:06.533Z,13.33
2022-10-19T15:16:56.762Z,11.80
2022-10-19T15:19:45.655Z,10.40
2022-10-19T15:22:40.554Z,19.87
2022-10-19T15:25:36.476Z,12.97
2022-10-19T15:28:39.112Z,18.57
2022-10-19T15:31:34.225Z,13.83
2022-10-19T15:34:29.689Z,22.03
2022-10-19T15:40:25.407Z,22.20
2022-10-19T15:43:48.041Z,28.27
2022-10-19T15:47:19.724Z,21.83
2022-10-19T15:50:38.956Z,24.93
2022-10-19T15:53:31.462Z,24.67
2022-10-19T15:56:21.550Z,27.67
2022-10-19T15:59:15.273Z,27.43
2022-10-19T16:02:09.706Z,38.10
2022-10-19T16:04:58.391Z,23.50
2022-10-19T16:07:47.998Z,33.57
2022-10-19T16:10:36.718Z,32.33
2022-10-19T16:13:31.270Z,26.03
2022-10-19T16:16:26.070Z,32.70
2022-10-19T16:19:14.975Z,29.40
2022-10-19T16:22:03.734Z,30.93
2022-10-19T16:24:51.928Z,26.47
2022-10-19T16:27:40.053Z,37.00
2022-10-19T16:30:28.616Z,45.40
2022-10-19T16:33:16.638Z,40.17
2022-10-19T16:36:16.491Z,40.33
2022-10-19T16:39:04.774Z,48.47
2022-10-19T16:41:53.195Z,64.57
2022-10-19T16:44:41.189Z,52.37
2022-10-19T16:47:30.148Z,57.00
2022-10-19T16:50:20.545Z,62.13
2022-10-19T16:53:21.073Z,81.13
2022-10-19T16:56:12.356Z,57.03
2022-10-19T16:59:03.258Z,60.13
2022-10-19T17:02:08.208Z,49.80
2022-10-19T17:04:57.128Z,41.67
2022-10-19T17:08:01.963Z,52.20
2022-10-19T17:10:57.769Z,40.90
2022-10-19T17:13:49.187Z,45.90
2022-10-19T17:16:38.534Z,47.10
2022-10-19T17:19:26.764Z,37.50
2022-10-19T17:22:15.546Z,59.00
2022-10-19T17:25:04.226Z,55.03
2022-10-19T17:27:53.472Z,59.57
2022-10-19T17:30:45.717Z,65.30
2022-10-19T17:36:26.725Z,66.83
2022-10-19T17:39:17.611Z,67.03
2022-10-19T17:42:06.471Z,66.10
2022-10-19T17:44:56.797Z,77.30
2022-10-19T17:47:47.023Z,75.60
2022-10-19T17:50:37.300Z,72.90
2022-10-19T17:53:25.414Z,70.73
2022-10-19T17:56:15.630Z,75.27
2022-10-19T17:59:06.945Z,78.63
2022-10-19T18:01:55.187Z,88.03
2022-10-19T18:04:43.464Z,79.33
2022-10-19T18:07:32.871Z,71.57
2022-10-19T18:10:21.503Z,63.23
2022-10-19T18:13:09.862Z,65.13
2022-10-19T18:16:01.378Z,57.90
2022-10-19T18:18:51.529Z,58.70
2022-10-19T18:21:44.025Z,66.33
2022-10-19T18:24:34.160Z,48.77
2022-10-19T18:27:22.051Z,54.30
2022-10-19T18:30:14.833Z,56.33
2022-10-19T18:33:03.259Z,60.35
2022-10-19T18:35:51.882Z,54.00
2022-10-19T18:38:41.117Z,52.23
2022-10-19T18:41:29.730Z,53.65
2022-10-19T18:44:20.841Z,46.93
2022-10-19T18:47:11.670Z,55.40
2022-10-19T18:49:59.802Z,52.73
2022-10-19T18:52:48.335Z,59.37
2022-10-19T18:55:36.392Z,57.63
2022-10-19T18:58:25.362Z,74.50
2022-10-19T19:01:18.952Z,62.00
2022-10-19T19:04:10.227Z,65.90
2022-10-19T19:06:58.370Z,60.37
2022-10-19T19:09:46.822Z,77.63
2022-10-19T19:12:35.100Z,73.90
2022-10-19T19:15:23.637Z,90.20
2022-10-19T19:18:12.353Z,91.40
2022-10-19T19:21:00.487Z,59.57
2022-10-19T19:23:50.553Z,75.17
2022-10-19T19:26:41.792Z,44.53
2022-10-19T19:29:30.336Z,40.17
2022-10-19T19:32:21.213Z,36.00
2022-10-19T19:35:10.646Z,34.03
2022-10-19T19:37:59.277Z,34.07
2022-10-19T19:40:47.624Z,33.40
2022-10-19T19:43:37.527Z,30.10
2022-10-19T19:46:26.462Z,24.43
2022-10-19T19:49:14.803Z,28.00
2022-10-19T19:52:03.051Z,22.20
2022-10-19T19:54:53.643Z,20.70
2022-10-19T19:57:42.255Z,19.40
2022-10-19T20:00:30.334Z,21.67
2022-10-19T20:03:18.937Z,23.50
2022-10-19T20:06:08.352Z,19.50
2022-10-19T20:08:56.992Z,19.37
2022-10-19T20:11:46.065Z,18.93
2022-10-19T20:14:36.180Z,16.63
2022-10-19T20:17:24.898Z,20.37
2022-10-19T20:20:17.502Z,18.40
2022-10-19T20:25:53.273Z,21.73
2022-10-19T20:28:42.178Z,22.60
2022-10-19T20:31:32.868Z,18.27
2022-10-19T20:34:21.939Z,16.00
2022-10-19T20:37:12.622Z,15.00
2022-10-19T20:40:07.357Z,15.83
2022-10-19T20:42:57.316Z,13.57
2022-10-19T20:45:45.992Z,14.63
2022-10-19T20:48:34.830Z,13.10
2022-10-19T20:51:29.117Z,13.00
2022-10-19T20:54:20.542Z,12.50
2022-10-19T20:57:08.663Z,13.17
2022-10-19T20:59:56.854Z,12.30
2022-10-19T21:02:47.599Z,12.23
2022-10-19T21:05:38.505Z,13.17
2022-10-19T21:08:27.364Z,13.70
2022-10-19T21:11:18.551Z,11.57
2022-10-19T21:14:08.437Z,9.60
2022-10-19T21:16:57.687Z,11.60
2022-10-19T21:19:46.051Z,12.40
2022-10-19T21:22:39.056Z,11.27
2022-10-19T21:25:29.821Z,10.20
2022-10-19T21:28:18.079Z,10.83
2022-10-19T21:31:10.202Z,10.50
2022-10-19T21:33:58.592Z,13.48
2022-10-19T21:36:47.034Z,11.03
2022-10-19T21:39:36.173Z,12.60
2022-10-19T21:42:24.917Z,9.90
2022-10-19T21:45:30.357Z,10.27
2022-10-19T21:48:19.196Z,10.73
2022-10-19T21:51:21.231Z,8.87
2022-10-19T21:54:13.266Z,9.87
2022-10-19T21:57:02.581Z,9.93
2022-10-19T21:59:50.638Z,10.77
2022-10-19T22:02:39.166Z,8.77
2022-10-19T22:05:27.050Z,9.13
2022-10-19T22:08:15.416Z,9.50
2022-10-19T22:11:08.537Z,8.43
2022-10-19T22:13:59.334Z,8.43
2022-10-19T22:16:47.459Z,10.40
2022-10-19T22:19:35.969Z,11.20
2022-10-19T22:22:24.250Z,8.70
2022-10-19T22:25:12.367Z,8.30
2022-10-19T22:28:00.632Z,8.27
2022-10-19T22:30:54.843Z,7.60
2022-10-19T22:33:43.684Z,7.80
2022-10-19T22:36:32.044Z,7.97
2022-10-19T22:39:20.346Z,7.20
2022-10-19T22:42:08.452Z,8.93
2022-10-19T22:44:56.407Z,8.57
2022-10-19T22:47:44.745Z,9.37
2022-10-19T22:50:33.057Z,9.00
2022-10-19T22:53:22.251Z,8.93
2022-10-19T22:56:14.722Z,7.50
2022-10-19T22:59:05.255Z,8.23
2022-10-19T23:01:54.127Z,8.60
2022-10-19T23:04:42.487Z,12.53
2022-10-19T23:07:30.868Z,7.37
2022-10-19T23:10:21.627Z,9.17
2022-10-19T23:13:13.556Z,8.03
2022-10-19T23:16:01.872Z,6.85
2022-10-19T23:18:50.485Z,10.10
2022-10-19T23:21:39.409Z,9.43
2022-10-19T23:24:28.895Z,9.03
2022-10-19T23:27:16.803Z,7.57
2022-10-19T23:30:06.443Z,7.80
2022-10-19T23:32:54.819Z,8.80
2022-10-19T23:35:43.036Z,8.47
2022-10-19T23:38:31.883Z,9.00
2022-10-19T23:41:21.203Z,9.03
2022-10-19T23:44:10.966Z,11.13
2022-10-19T23:46:59.727Z,8.60
2022-10-19T23:49:47.659Z,8.60
2022-10-19T23:52:36.315Z,9.70
2022-10-19T23:55:24.544Z,7.57
2022-10-19T23:58:12.403Z,8.80
